This is the latest recevied weather packets stored in our database for station/object IU2EVW-13. If no packets are shown the sender has not sent any weather packets the latest 10 day(s).
| Time | Temp. | Humidity | Pressure | Rain* | Wind** | Luminosity | Snow |
|---|---|---|---|---|---|---|---|
| 1787742154 | 23.89° C | 54% | 1020.6 hPa | - | - | - | - |
| 1787740952 | 24.44° C | 52% | 1020.7 hPa | - | - | - | - |
| 1787739751 | 23.33° C | 58% | 1020.6 hPa | - | - | - | - |
| 1787738550 | 22.78° C | 59% | 1020.8 hPa | - | - | - | - |
| 1787737349 | 21.67° C | 59% | 1020.9 hPa | - | - | - | - |
| 1787736147 | 21.11° C | 64% | 1021.1 hPa | - | - | - | - |
| 1787734946 | 20.56° C | 67% | 1021.2 hPa | - | - | - | - |
| 1787733745 | 20° C | 67% | 1021.2 hPa | - | - | - | - |
| 1787732544 | 19.44° C | 71% | 1021.3 hPa | - | - | - | - |
| 1787731342 | 18.89° C | 71% | 1021.3 hPa | - | - | - | - |
| 1787730141 | 18.33° C | 75% | 1021.3 hPa | - | - | - | - |
| 1787728940 | 18.33° C | 78% | 1021.3 hPa | - | - | - | - |
| 1787727739 | 17.78° C | 79% | 1021.3 hPa | - | - | - | - |
| 1787726537 | 17.78° C | 77% | 1021.1 hPa | - | - | - | - |
| 1787725336 | 17.22° C | 78% | 1021 hPa | - | - | - | - |
| 1787724411 | 17.22° C | 78% | 1020.9 hPa | - | - | - | - |
| 1787723209 | 17.22° C | 78% | 1020.6 hPa | - | - | - | - |
| 1787722008 | 17.22° C | 80% | 1020.5 hPa | - | - | - | - |
| 1787720807 | 16.67° C | 80% | 1020.4 hPa | - | - | - | - |
| 1787719606 | 16.67° C | 81% | 1020.4 hPa | - | - | - | - |
| 1787718404 | 16.67° C | 81% | 1020.4 hPa | - | - | - | - |
| 1787717203 | 16.67° C | 81% | 1020.2 hPa | - | - | - | - |
| 1787716002 | 17.22° C | 80% | 1020.1 hPa | - | - | - | - |
| 1787714801 | 17.22° C | 80% | 1020 hPa | - | - | - | - |
| 1787713599 | 16.67° C | 82% | 1019.9 hPa | - | - | - | - |
* Rain since midnight (hover to see other rain measurements)
** Current wind speed in m/s (hover to see current wind gust speed)